createdAt,value
2017-09-19T00:00:50.537Z,8.69
2017-09-19T00:03:18.095Z,8.67
2017-09-19T00:05:45.725Z,8.64
2017-09-19T00:08:13.298Z,8.64
2017-09-19T00:10:40.910Z,8.57
2017-09-19T00:13:08.472Z,8.52
2017-09-19T00:15:36.445Z,8.51
2017-09-19T00:18:03.985Z,8.50
2017-09-19T00:20:31.514Z,8.47
2017-09-19T00:22:59.063Z,8.50
2017-09-19T00:25:26.641Z,8.51
2017-09-19T00:27:54.229Z,8.48
2017-09-19T00:30:22.863Z,8.45
2017-09-19T00:32:50.822Z,8.40
2017-09-19T00:35:18.477Z,8.43
2017-09-19T00:37:46.017Z,8.39
2017-09-19T00:40:13.577Z,8.41
2017-09-19T00:42:41.147Z,8.42
2017-09-19T00:45:08.751Z,8.41
2017-09-19T00:47:36.305Z,8.42
2017-09-19T00:50:04.219Z,8.40
2017-09-19T00:52:31.763Z,8.38
2017-09-19T00:54:59.308Z,8.33
2017-09-19T00:57:26.996Z,8.28
2017-09-19T00:59:54.530Z,8.23
2017-09-19T01:02:22.474Z,8.27
2017-09-19T01:04:50.022Z,8.25
2017-09-19T01:07:17.553Z,8.26
2017-09-19T01:09:45.131Z,8.27
2017-09-19T01:12:12.686Z,8.28
2017-09-19T01:14:40.616Z,8.29
2017-09-19T01:17:08.336Z,8.30
2017-09-19T01:19:35.917Z,8.31
2017-09-19T01:22:03.503Z,8.31
2017-09-19T01:24:31.160Z,8.31
2017-09-19T01:26:58.736Z,8.32
2017-09-19T01:29:26.305Z,8.30
2017-09-19T01:31:54.179Z,8.28
2017-09-19T01:34:21.732Z,8.31
2017-09-19T01:36:49.262Z,8.26
2017-09-19T01:39:16.856Z,8.28
2017-09-19T01:41:44.441Z,8.27
2017-09-19T01:44:12.149Z,8.24
2017-09-19T01:46:39.690Z,8.21
2017-09-19T01:49:07.592Z,8.22
2017-09-19T01:51:35.132Z,8.23
2017-09-19T01:54:02.722Z,8.22
2017-09-19T01:56:30.266Z,8.21
2017-09-19T01:58:57.814Z,8.20
2017-09-19T02:01:25.380Z,8.22
2017-09-19T02:03:52.970Z,8.20
2017-09-19T02:06:20.937Z,8.19
2017-09-19T02:08:48.537Z,8.19
2017-09-19T02:11:16.083Z,8.21
2017-09-19T02:13:43.750Z,8.21
2017-09-19T02:16:11.303Z,8.18
2017-09-19T02:18:38.874Z,8.20
2017-09-19T02:21:06.417Z,8.23
2017-09-19T02:23:34.366Z,8.24
2017-09-19T02:26:01.925Z,8.20
2017-09-19T02:28:29.482Z,8.21
2017-09-19T02:30:57.058Z,8.24
2017-09-19T02:33:24.609Z,8.28
2017-09-19T02:35:52.201Z,8.31
2017-09-19T02:38:19.781Z,8.33
2017-09-19T02:40:47.779Z,8.34
2017-09-19T02:43:15.667Z,8.33
2017-09-19T02:45:43.208Z,8.33
2017-09-19T02:48:10.841Z,8.34
2017-09-19T02:50:38.939Z,8.36
2017-09-19T02:53:06.487Z,8.33
2017-09-19T02:55:34.064Z,8.34
2017-09-19T02:58:01.927Z,8.33
2017-09-19T03:00:29.482Z,8.33
2017-09-19T03:02:57.022Z,8.34
2017-09-19T03:05:24.582Z,8.35
2017-09-19T03:07:52.125Z,8.36
2017-09-19T03:10:20.029Z,8.39
2017-09-19T03:12:47.575Z,8.36
2017-09-19T03:15:15.121Z,8.27
2017-09-19T03:17:42.679Z,8.18
2017-09-19T03:20:10.215Z,8.12
2017-09-19T03:22:37.745Z,8.06
2017-09-19T03:25:05.322Z,8.03
2017-09-19T03:27:32.864Z,8.03
2017-09-19T03:30:00.800Z,8.04
2017-09-19T03:32:28.350Z,8.11
2017-09-19T03:34:55.899Z,8.19
2017-09-19T03:37:23.482Z,8.25
2017-09-19T03:39:52.273Z,8.23
2017-09-19T03:44:53.856Z,8.26
2017-09-19T03:47:21.682Z,8.28
2017-09-19T03:49:49.243Z,8.31
2017-09-19T03:52:16.927Z,8.34
2017-09-19T03:54:44.503Z,8.34
2017-09-19T03:57:12.061Z,8.33
2017-09-19T03:59:39.926Z,8.30
2017-09-19T04:02:07.489Z,8.31
2017-09-19T04:04:35.028Z,8.35
2017-09-19T04:07:02.624Z,8.37
2017-09-19T04:09:30.194Z,8.40
2017-09-19T04:11:58.142Z,8.42
2017-09-19T04:14:25.678Z,8.45
2017-09-19T04:16:53.281Z,8.47
2017-09-19T04:19:20.874Z,8.50
2017-09-19T04:21:48.437Z,8.53
2017-09-19T04:24:16.359Z,8.55
2017-09-19T04:26:43.937Z,8.53
2017-09-19T04:29:11.492Z,8.54
2017-09-19T04:31:39.100Z,8.54
2017-09-19T04:34:06.644Z,8.48
2017-09-19T04:36:34.663Z,8.44
2017-09-19T04:39:02.240Z,8.42
2017-09-19T04:41:29.799Z,8.44
2017-09-19T04:43:57.385Z,8.47
2017-09-19T04:46:24.941Z,8.47
2017-09-19T04:48:52.881Z,8.50
2017-09-19T04:51:20.481Z,8.51
2017-09-19T04:53:48.035Z,8.50
2017-09-19T04:56:15.724Z,8.41
2017-09-19T04:58:43.276Z,8.33
2017-09-19T05:01:11.210Z,8.35
2017-09-19T05:06:13.180Z,8.40
2017-09-19T05:08:40.749Z,8.44
2017-09-19T05:11:08.297Z,8.47
2017-09-19T05:13:36.001Z,8.53
2017-09-19T05:16:03.571Z,8.57
2017-09-19T05:18:36.536Z,8.58
2017-09-19T05:21:04.259Z,8.59
2017-09-19T05:23:31.810Z,8.64
2017-09-19T05:25:59.662Z,8.67
2017-09-19T05:28:27.218Z,8.70
2017-09-19T05:30:54.774Z,8.71
2017-09-19T05:33:22.359Z,8.73
2017-09-19T05:35:49.918Z,8.75
2017-09-19T05:38:17.880Z,8.79
2017-09-19T05:40:46.507Z,8.82
2017-09-19T05:43:14.079Z,8.84
2017-09-19T05:45:42.788Z,8.87
2017-09-19T05:48:10.329Z,8.87
2017-09-19T05:50:38.546Z,8.88
2017-09-19T05:53:06.096Z,8.91
2017-09-19T05:55:33.656Z,8.96
2017-09-19T05:58:01.394Z,9.00
2017-09-19T06:00:28.966Z,9.03
2017-09-19T06:02:56.864Z,9.06
2017-09-19T06:05:24.419Z,9.10
2017-09-19T06:07:51.970Z,9.12
2017-09-19T06:10:19.873Z,9.14
2017-09-19T06:12:47.426Z,9.14
2017-09-19T06:15:14.993Z,9.13
2017-09-19T06:17:42.557Z,9.13
2017-09-19T06:20:10.132Z,9.15
2017-09-19T06:22:38.190Z,9.20
2017-09-19T06:25:05.697Z,9.24
2017-09-19T06:27:33.588Z,9.29
2017-09-19T06:30:02.103Z,9.29
2017-09-19T06:32:30.244Z,9.30
2017-09-19T06:34:57.870Z,9.34
2017-09-19T06:37:25.776Z,9.40
2017-09-19T06:39:53.336Z,9.46
2017-09-19T06:42:20.951Z,9.49
2017-09-19T06:44:48.534Z,9.47
2017-09-19T06:47:16.087Z,9.47
2017-09-19T06:49:43.995Z,9.51
2017-09-19T06:52:11.549Z,9.54
2017-09-19T06:54:39.115Z,9.54
2017-09-19T06:57:06.672Z,9.52
2017-09-19T06:59:34.664Z,9.50
2017-09-19T07:02:02.230Z,9.51
2017-09-19T07:04:29.787Z,9.51
2017-09-19T07:06:57.365Z,9.56
2017-09-19T07:09:24.911Z,9.59
2017-09-19T07:11:52.874Z,9.65
2017-09-19T07:14:20.414Z,9.74
2017-09-19T07:16:48.643Z,9.81
2017-09-19T07:19:16.233Z,9.89
2017-09-19T07:21:43.796Z,9.92
2017-09-19T07:24:11.378Z,9.94
2017-09-19T07:26:38.945Z,9.99
2017-09-19T07:29:06.539Z,10.04
2017-09-19T07:31:34.095Z,10.10
2017-09-19T07:34:01.690Z,10.20
2017-09-19T07:36:29.261Z,10.26
2017-09-19T07:38:57.155Z,10.33
2017-09-19T07:41:24.874Z,10.39
2017-09-19T07:43:52.439Z,10.46
2017-09-19T07:46:20.825Z,10.51
2017-09-19T07:48:49.108Z,10.57
2017-09-19T07:51:16.793Z,10.64
2017-09-19T07:53:44.438Z,10.71
2017-09-19T07:56:12.426Z,10.76
2017-09-19T07:58:40.066Z,10.68
2017-09-19T08:01:07.746Z,10.80
2017-09-19T08:03:35.385Z,10.88
2017-09-19T08:06:03.582Z,10.96
2017-09-19T08:08:31.550Z,11.05
2017-09-19T08:11:00.572Z,11.13
2017-09-19T08:13:28.246Z,11.17
2017-09-19T08:15:55.882Z,11.17
2017-09-19T08:18:23.607Z,11.24
2017-09-19T08:20:51.235Z,11.35
2017-09-19T08:23:18.802Z,11.43
2017-09-19T08:25:46.692Z,11.52
2017-09-19T08:28:18.618Z,11.61
2017-09-19T08:30:46.315Z,11.68
2017-09-19T08:33:13.883Z,11.77
2017-09-19T08:35:41.639Z,11.87
2017-09-19T08:38:09.234Z,11.98
2017-09-19T08:40:36.811Z,12.00
2017-09-19T08:43:04.652Z,12.07
2017-09-19T08:45:32.334Z,12.20
2017-09-19T08:47:59.903Z,12.30
2017-09-19T08:50:27.487Z,12.46
2017-09-19T08:52:55.051Z,12.58
2017-09-19T08:55:22.764Z,12.62
2017-09-19T08:57:50.347Z,12.76
2017-09-19T09:00:18.025Z,12.90
2017-09-19T09:02:45.940Z,12.93
2017-09-19T09:05:13.528Z,13.00
2017-09-19T09:07:41.225Z,13.03
2017-09-19T09:10:08.853Z,13.02
2017-09-19T09:12:36.886Z,13.09
2017-09-19T09:15:04.467Z,13.22
2017-09-19T09:17:32.034Z,13.32
2017-09-19T09:19:59.611Z,13.35
2017-09-19T09:22:27.181Z,13.43
2017-09-19T09:24:54.752Z,13.46
2017-09-19T09:27:22.330Z,13.50
2017-09-19T09:29:50.224Z,13.53
2017-09-19T09:32:17.804Z,13.55
2017-09-19T09:34:45.374Z,13.52
2017-09-19T09:37:12.967Z,13.59
2017-09-19T09:39:40.524Z,13.65
2017-09-19T09:42:08.108Z,13.68
2017-09-19T09:44:35.679Z,13.73
2017-09-19T09:47:03.294Z,13.73
2017-09-19T09:49:30.852Z,13.79
2017-09-19T09:51:58.628Z,13.65
2017-09-19T09:54:26.193Z,13.63
2017-09-19T09:56:54.158Z,13.66
2017-09-19T09:59:21.735Z,13.76
2017-09-19T10:01:49.299Z,13.87
2017-09-19T10:04:16.862Z,13.90
2017-09-19T10:06:44.444Z,13.86
2017-09-19T10:09:12.019Z,13.96
2017-09-19T10:11:39.567Z,14.03
2017-09-19T10:14:07.143Z,14.11
2017-09-19T10:16:34.698Z,14.10
2017-09-19T10:19:02.558Z,14.09
2017-09-19T10:21:30.127Z,13.91
2017-09-19T10:23:57.688Z,13.92
2017-09-19T10:26:25.272Z,13.71
2017-09-19T10:28:53.221Z,13.59
2017-09-19T10:31:20.814Z,13.64
2017-09-19T10:33:48.651Z,13.68
2017-09-19T10:36:16.280Z,13.69
2017-09-19T10:38:44.176Z,13.76
2017-09-19T10:41:11.732Z,13.74
2017-09-19T10:43:39.296Z,13.77
2017-09-19T10:46:06.892Z,13.85
2017-09-19T10:48:34.437Z,14.03
2017-09-19T10:51:04.702Z,14.20
2017-09-19T10:53:32.413Z,14.30
2017-09-19T10:55:59.969Z,14.26
2017-09-19T10:58:27.569Z,14.20
2017-09-19T11:00:55.138Z,14.27
2017-09-19T11:03:22.724Z,14.32
2017-09-19T11:05:50.691Z,14.44
2017-09-19T11:08:18.248Z,14.55
2017-09-19T11:10:45.826Z,14.62
2017-09-19T11:13:13.429Z,14.69
2017-09-19T11:15:40.985Z,14.45
2017-09-19T11:18:09.079Z,14.28
2017-09-19T11:20:36.695Z,14.38
2017-09-19T11:23:04.255Z,14.45
2017-09-19T11:25:31.875Z,14.43
2017-09-19T11:27:59.452Z,14.50
2017-09-19T11:30:27.348Z,14.50
2017-09-19T11:32:55.241Z,14.52
2017-09-19T11:35:22.792Z,14.59
2017-09-19T11:37:50.386Z,14.67
2017-09-19T11:40:17.970Z,14.69
2017-09-19T11:42:45.793Z,14.66
2017-09-19T11:45:13.334Z,14.67
2017-09-19T11:47:40.932Z,14.68
2017-09-19T11:50:08.568Z,14.71
2017-09-19T11:52:36.224Z,14.74
2017-09-19T11:55:03.961Z,14.77
2017-09-19T11:57:31.518Z,14.80
2017-09-19T11:59:59.408Z,14.70
2017-09-19T12:02:27.077Z,14.63
2017-09-19T12:04:54.658Z,14.65
2017-09-19T12:07:22.284Z,14.67
2017-09-19T12:09:51.001Z,14.74
2017-09-19T12:12:18.598Z,14.87
2017-09-19T12:14:46.156Z,14.83
2017-09-19T12:17:14.047Z,14.57
2017-09-19T12:19:41.629Z,14.58
2017-09-19T12:22:09.204Z,14.60
2017-09-19T12:24:36.830Z,14.64
2017-09-19T12:27:04.465Z,14.61
2017-09-19T12:29:32.067Z,14.67
2017-09-19T12:31:59.622Z,14.70
2017-09-19T12:34:27.591Z,14.76
2017-09-19T12:36:55.350Z,14.85
2017-09-19T12:39:23.084Z,14.56
2017-09-19T12:41:50.657Z,14.59
2017-09-19T12:44:18.226Z,14.62
2017-09-19T12:46:45.855Z,14.68
2017-09-19T12:49:13.398Z,14.68
2017-09-19T12:51:41.340Z,14.74
2017-09-19T12:54:08.945Z,14.79
2017-09-19T12:56:36.525Z,14.88
2017-09-19T12:59:04.122Z,14.70
2017-09-19T13:01:31.708Z,14.59
2017-09-19T13:03:59.365Z,14.68
2017-09-19T13:06:26.931Z,14.61
2017-09-19T13:08:55.929Z,14.65
2017-09-19T13:11:23.503Z,14.69
2017-09-19T13:13:51.608Z,14.67
2017-09-19T13:16:19.206Z,14.72
2017-09-19T13:18:46.776Z,14.67
2017-09-19T13:21:14.362Z,14.62
2017-09-19T13:23:41.933Z,14.67
2017-09-19T13:26:09.821Z,14.74
2017-09-19T13:28:37.370Z,14.65
2017-09-19T13:31:17.049Z,14.54
2017-09-19T13:33:51.211Z,14.51
2017-09-19T13:36:19.114Z,14.59
2017-09-19T13:38:46.921Z,14.70
2017-09-19T13:41:14.521Z,14.81
2017-09-19T13:43:42.121Z,14.78
2017-09-19T13:46:10.986Z,14.81
2017-09-19T13:48:38.962Z,14.82
2017-09-19T13:51:06.538Z,14.86
2017-09-19T13:53:34.579Z,14.86
2017-09-19T13:56:02.587Z,14.80
2017-09-19T13:58:30.131Z,14.80
2017-09-19T14:00:57.689Z,14.80
2017-09-19T14:03:26.373Z,14.79
2017-09-19T14:05:54.851Z,14.83
2017-09-19T14:08:22.454Z,14.86
2017-09-19T14:10:50.522Z,14.77
2017-09-19T14:13:18.117Z,14.75
2017-09-19T14:15:45.711Z,14.72
2017-09-19T14:18:13.276Z,14.70
2017-09-19T14:20:40.928Z,14.71
2017-09-19T14:23:08.920Z,14.67
2017-09-19T14:25:36.480Z,14.67
2017-09-19T14:28:04.075Z,14.67
2017-09-19T14:30:31.648Z,14.69
2017-09-19T14:32:59.220Z,14.72
2017-09-19T14:35:27.310Z,14.70
2017-09-19T14:37:54.932Z,14.66
2017-09-19T14:40:22.504Z,14.66
2017-09-19T14:42:50.592Z,14.71
2017-09-19T14:45:18.161Z,14.70
2017-09-19T14:47:45.764Z,14.60
2017-09-19T14:50:13.351Z,14.61
2017-09-19T14:52:40.957Z,14.62
2017-09-19T14:55:09.018Z,14.61
2017-09-19T14:57:36.593Z,14.47
2017-09-19T15:00:04.167Z,14.46
2017-09-19T15:02:31.765Z,14.53
2017-09-19T15:04:59.414Z,14.55
2017-09-19T15:07:27.438Z,14.49
2017-09-19T15:09:55.049Z,14.42
2017-09-19T15:12:22.627Z,14.28
2017-09-19T15:14:50.246Z,14.28
2017-09-19T15:17:17.812Z,14.28
2017-09-19T15:19:45.431Z,14.29
2017-09-19T15:22:12.980Z,14.28
2017-09-19T15:24:40.864Z,14.21
2017-09-19T15:27:08.430Z,14.19
2017-09-19T15:29:35.986Z,14.10
2017-09-19T15:32:03.563Z,14.03
2017-09-19T15:34:32.442Z,13.94
2017-09-19T15:37:00.412Z,13.91
2017-09-19T15:39:28.116Z,13.80
2017-09-19T15:41:55.690Z,13.80
2017-09-19T15:44:23.575Z,13.76
2017-09-19T15:46:51.334Z,13.63
2017-09-19T15:49:19.216Z,13.60
2017-09-19T15:51:46.775Z,13.62
2017-09-19T15:54:14.353Z,13.59
2017-09-19T15:56:41.944Z,13.61
2017-09-19T15:59:09.689Z,13.63
2017-09-19T16:01:37.822Z,13.65
2017-09-19T16:04:05.403Z,13.61
2017-09-19T16:06:32.987Z,13.56
2017-09-19T16:09:00.588Z,13.56
2017-09-19T16:11:28.165Z,13.53
2017-09-19T16:13:56.140Z,13.50
2017-09-19T16:16:23.714Z,13.48
2017-09-19T16:18:51.429Z,13.45
2017-09-19T16:21:19.013Z,13.39
2017-09-19T16:23:46.561Z,13.35
2017-09-19T16:26:14.458Z,13.31
2017-09-19T16:28:42.017Z,13.32
2017-09-19T16:31:09.633Z,13.31
2017-09-19T16:33:37.306Z,13.27
2017-09-19T16:36:04.910Z,13.25
2017-09-19T16:38:32.506Z,13.23
2017-09-19T16:41:00.110Z,13.19
2017-09-19T16:43:27.973Z,13.15
2017-09-19T16:45:55.627Z,13.10
2017-09-19T16:48:23.210Z,13.07
2017-09-19T16:50:50.801Z,13.02
2017-09-19T16:53:18.413Z,12.98
2017-09-19T16:55:46.624Z,12.92
2017-09-19T16:58:14.206Z,12.89
2017-09-19T17:00:41.774Z,12.83
2017-09-19T17:03:09.546Z,12.78
2017-09-19T17:05:37.210Z,12.76
2017-09-19T17:08:05.278Z,12.77
2017-09-19T17:10:32.864Z,12.74
2017-09-19T17:13:01.213Z,12.73
2017-09-19T17:15:28.794Z,12.73
2017-09-19T17:17:56.371Z,12.71
2017-09-19T17:20:24.023Z,12.68
2017-09-19T17:22:52.025Z,12.63
2017-09-19T17:25:19.938Z,12.60
2017-09-19T17:27:47.593Z,12.57
2017-09-19T17:30:15.312Z,12.57
2017-09-19T17:32:42.910Z,12.56
2017-09-19T17:35:10.499Z,12.52
2017-09-19T17:37:39.474Z,12.51
2017-09-19T17:40:07.163Z,12.47
2017-09-19T17:42:34.733Z,12.46
2017-09-19T17:45:02.337Z,12.44
2017-09-19T17:47:29.899Z,12.42
2017-09-19T17:49:57.864Z,12.38
2017-09-19T17:52:25.435Z,12.34
2017-09-19T17:54:53.012Z,12.34
2017-09-19T17:57:20.630Z,12.34
2017-09-19T17:59:48.219Z,12.33
2017-09-19T18:02:16.178Z,12.30
2017-09-19T18:04:43.914Z,12.28
2017-09-19T18:07:11.480Z,12.24
2017-09-19T18:09:39.098Z,12.24
2017-09-19T18:12:06.810Z,12.24
2017-09-19T18:14:34.405Z,12.21
2017-09-19T18:17:02.090Z,12.19
2017-09-19T18:19:29.676Z,12.17
2017-09-19T18:21:57.685Z,12.13
2017-09-19T18:24:25.307Z,12.09
2017-09-19T18:26:53.056Z,12.06
2017-09-19T18:29:20.995Z,12.03
2017-09-19T18:31:48.586Z,12.01
2017-09-19T18:34:16.179Z,11.97
2017-09-19T18:36:44.133Z,11.94
2017-09-19T18:39:11.833Z,11.88
2017-09-19T18:41:39.567Z,11.90
2017-09-19T18:44:07.238Z,11.87
2017-09-19T18:46:34.847Z,11.87
2017-09-19T18:49:02.953Z,11.85
2017-09-19T18:51:30.780Z,11.83
2017-09-19T18:53:58.514Z,11.81
2017-09-19T18:56:26.465Z,11.80
2017-09-19T18:58:54.879Z,11.77
2017-09-19T19:01:22.730Z,11.76
2017-09-19T19:03:50.603Z,11.73
2017-09-19T19:06:18.888Z,11.71
2017-09-19T19:08:46.541Z,11.71
2017-09-19T19:11:14.410Z,11.68
2017-09-19T19:13:42.273Z,11.64
2017-09-19T19:16:10.139Z,11.59
2017-09-19T19:18:37.918Z,11.57
2017-09-19T19:21:05.769Z,11.54
2017-09-19T19:23:34.150Z,11.48
2017-09-19T19:26:02.118Z,11.45
2017-09-19T19:28:30.336Z,11.45
2017-09-19T19:30:58.273Z,11.44
2017-09-19T19:33:26.038Z,11.42
2017-09-19T19:35:54.106Z,11.43
2017-09-19T19:38:21.954Z,11.41
2017-09-19T19:40:49.719Z,11.42
2017-09-19T19:43:17.645Z,11.42
2017-09-19T19:45:45.266Z,11.40
2017-09-19T19:48:13.161Z,11.38
2017-09-19T19:50:40.790Z,11.36
2017-09-19T19:53:08.854Z,11.37
2017-09-19T19:55:36.644Z,11.35
2017-09-19T19:58:04.331Z,11.33
2017-09-19T20:00:32.298Z,11.32
2017-09-19T20:02:59.907Z,11.28
2017-09-19T20:05:27.546Z,11.28
2017-09-19T20:07:55.189Z,11.29
2017-09-19T20:10:22.806Z,11.27
2017-09-19T20:12:51.387Z,11.24
2017-09-19T20:15:19.104Z,11.22
2017-09-19T20:17:46.970Z,11.18
2017-09-19T20:20:14.636Z,11.12
2017-09-19T20:22:42.224Z,11.04
2017-09-19T20:25:09.838Z,11.02
2017-09-19T20:27:37.446Z,11.00
2017-09-19T20:30:05.232Z,10.98
2017-09-19T20:32:32.908Z,11.01
2017-09-19T20:35:01.027Z,11.03
2017-09-19T20:37:28.610Z,11.02
2017-09-19T20:39:56.211Z,11.00
2017-09-19T20:42:23.820Z,11.00
2017-09-19T20:44:51.383Z,10.98
2017-09-19T20:47:19.136Z,10.98
2017-09-19T20:49:46.706Z,10.99
2017-09-19T20:52:14.709Z,10.96
2017-09-19T20:54:42.298Z,10.98
2017-09-19T20:57:09.858Z,10.95
2017-09-19T20:59:37.455Z,10.95
2017-09-19T21:02:05.160Z,10.93
2017-09-19T21:04:38.245Z,10.92
2017-09-19T21:07:11.469Z,10.92
2017-09-19T21:09:44.859Z,10.89
2017-09-19T21:12:17.966Z,10.89
2017-09-19T21:14:51.140Z,10.88
2017-09-19T21:17:24.408Z,10.86
2017-09-19T21:19:53.913Z,10.85
2017-09-19T21:22:29.259Z,10.83
2017-09-19T21:24:58.140Z,10.81
2017-09-19T21:27:25.736Z,10.79
2017-09-19T21:29:53.304Z,10.75
2017-09-19T21:32:21.130Z,10.73
2017-09-19T21:34:48.792Z,10.72
2017-09-19T21:37:16.388Z,10.70
2017-09-19T21:39:44.013Z,10.70
2017-09-19T21:42:11.602Z,10.66
2017-09-19T21:44:39.465Z,10.64
2017-09-19T21:47:08.307Z,10.63
2017-09-19T21:49:35.872Z,10.63
2017-09-19T21:52:03.470Z,10.60
2017-09-19T21:54:31.247Z,10.59
2017-09-19T21:56:59.185Z,10.56
2017-09-19T21:59:26.863Z,10.55
2017-09-19T22:01:54.445Z,10.57
2017-09-19T22:04:22.192Z,10.58
2017-09-19T22:06:49.777Z,10.58
2017-09-19T22:09:17.621Z,10.59
2017-09-19T22:11:45.192Z,10.59
2017-09-19T22:14:12.765Z,10.58
2017-09-19T22:16:40.356Z,10.59
2017-09-19T22:19:07.932Z,10.60
2017-09-19T22:21:35.808Z,10.57
2017-09-19T22:24:03.403Z,10.58
2017-09-19T22:26:30.958Z,10.56
2017-09-19T22:28:58.512Z,10.55
2017-09-19T22:31:26.094Z,10.55
2017-09-19T22:33:53.948Z,10.53
2017-09-19T22:36:21.690Z,10.50
2017-09-19T22:38:49.261Z,10.49
2017-09-19T22:41:16.883Z,10.49
2017-09-19T22:43:45.943Z,10.49
2017-09-19T22:46:13.963Z,10.49
2017-09-19T22:48:41.545Z,10.50
2017-09-19T22:51:09.128Z,10.50
2017-09-19T22:53:36.749Z,10.48
2017-09-19T22:56:04.553Z,10.47
2017-09-19T22:58:32.507Z,10.48
2017-09-19T23:01:00.170Z,10.49
2017-09-19T23:03:27.722Z,10.48
2017-09-19T23:05:55.329Z,10.48
2017-09-19T23:08:22.929Z,10.47
2017-09-19T23:10:50.898Z,10.47
2017-09-19T23:13:18.450Z,10.48
2017-09-19T23:15:46.031Z,10.50
2017-09-19T23:18:13.605Z,10.51
2017-09-19T23:20:41.136Z,10.50
2017-09-19T23:23:09.001Z,10.50
2017-09-19T23:25:36.549Z,10.52
2017-09-19T23:28:04.146Z,10.54
2017-09-19T23:30:31.803Z,10.53
2017-09-19T23:32:59.382Z,10.52
2017-09-19T23:35:27.295Z,10.49
2017-09-19T23:37:54.840Z,10.49
2017-09-19T23:40:22.429Z,10.52
2017-09-19T23:42:50.023Z,10.53
2017-09-19T23:45:18.199Z,10.53
2017-09-19T23:47:46.299Z,10.54
2017-09-19T23:50:13.876Z,10.54
2017-09-19T23:52:41.468Z,10.54
2017-09-19T23:55:09.231Z,10.54
2017-09-19T23:57:36.823Z,10.52
